Time;durP1;ratioP1;P1;durP2;ratioP2;P2;SDS_P1;SDS_P2;PMS_P1;PMS_P2;Temp;Humidity;BMP_temperature;BMP_pressure;BME280_temperature;BME280_humidity;BME280_pressure;Samples;Min_cycle;Max_cycle;Signal;HPM_P1;HPM_P2
2021/05/20 00:00:18;;;;;;;3.88;1.80;;;10.10;84.60;;;;;;5038059;28;20230;-84
2021/05/20 00:02:45;;;;;;;2.67;1.88;;;10.10;84.50;;;;;;5038916;28;20203;-84
2021/05/20 00:05:15;;;;;;;3.40;1.50;;;10.10;84.40;;;;;;5039521;28;20242;-84
2021/05/20 00:07:42;;;;;;;1.70;1.60;;;10.10;84.80;;;;;;5037051;28;20214;-83
2021/05/20 00:10:09;;;;;;;5.38;1.98;;;10.10;84.80;;;;;;5046262;28;20286;-85
2021/05/20 00:12:36;;;;;;;3.90;1.70;;;10.20;84.90;;;;;;5052882;28;20234;-86
2021/05/20 00:15:06;;;;;;;2.20;1.70;;;10.30;84.50;;;;;;5054537;28;20241;-86
2021/05/20 00:17:33;;;;;;;2.03;1.88;;;10.30;84.10;;;;;;5052421;28;20207;-83
2021/05/20 00:20:00;;;;;;;2.20;2.00;;;10.40;83.40;;;;;;5045462;28;20747;-84
2021/05/20 00:22:28;;;;;;;2.75;1.98;;;10.40;82.70;;;;;;5048485;28;20199;-85
2021/05/20 00:24:55;;;;;;;4.30;1.85;;;10.40;82.60;;;;;;5050697;28;20207;-85
2021/05/20 00:27:21;;;;;;;2.63;1.80;;;10.50;82.30;;;;;;5050459;28;20222;-85
2021/05/20 00:29:49;;;;;;;2.25;1.85;;;10.50;81.90;;;;;;5050319;28;20295;-85
2021/05/20 00:32:16;;;;;;;2.40;2.10;;;10.50;82.00;;;;;;5054488;28;20195;-85
2021/05/20 00:34:43;;;;;;;3.80;2.10;;;10.50;81.80;;;;;;5052814;28;20211;-86
2021/05/20 00:37:10;;;;;;;3.15;1.60;;;10.50;82.50;;;;;;5044118;28;20233;-84
2021/05/20 00:39:36;;;;;;;2.50;2.20;;;10.50;82.50;;;;;;5044195;28;20262;-85
2021/05/20 00:42:06;;;;;;;3.40;2.20;;;10.50;82.40;;;;;;5042095;28;20263;-86
2021/05/20 00:44:32;;;;;;;1.70;1.60;;;10.50;82.40;;;;;;5047385;28;20214;-84
2021/05/20 00:46:59;;;;;;;1.67;1.58;;;10.40;83.30;;;;;;5045533;28;20226;-84
2021/05/20 00:49:26;;;;;;;4.05;1.98;;;10.50;83.20;;;;;;5046236;28;20286;-84
2021/05/20 00:51:53;;;;;;;3.05;1.65;;;10.40;83.20;;;;;;5047515;28;20207;-84
2021/05/20 00:54:20;;;;;;;3.17;2.08;;;10.40;83.40;;;;;;5050392;28;20203;-83
2021/05/20 00:56:47;;;;;;;3.58;2.08;;;10.30;84.10;;;;;;5047673;28;20667;-84
2021/05/20 00:59:14;;;;;;;3.15;1.60;;;10.30;85.00;;;;;;5049631;28;20215;-85
2021/05/20 01:01:41;;;;;;;2.92;2.22;;;10.20;84.90;;;;;;5055766;28;20219;-84
2021/05/20 01:04:08;;;;;;;2.00;1.80;;;10.20;84.90;;;;;;5056732;28;20210;-84
2021/05/20 01:06:34;;;;;;;4.13;1.90;;;10.10;84.80;;;;;;5053649;28;20210;-84
2021/05/20 01:09:01;;;;;;;2.10;1.90;;;10.10;86.10;;;;;;5056163;28;20214;-85
2021/05/20 01:11:29;;;;;;;3.50;1.90;;;10.10;86.90;;;;;;5059517;28;20191;-84
2021/05/20 01:13:55;;;;;;;2.88;1.90;;;10.10;87.30;;;;;;5059600;28;20183;-85
2021/05/20 01:16:22;;;;;;;2.90;2.60;;;10.00;88.20;;;;;;5048410;28;20211;-84
2021/05/20 01:18:48;;;;;;;2.30;1.92;;;10.00;88.30;;;;;;5052113;28;20285;-84
2021/05/20 01:21:16;;;;;;;2.55;2.20;;;10.00;88.20;;;;;;5053974;28;20238;-85
2021/05/20 01:23:43;;;;;;;3.40;2.00;;;10.10;87.50;;;;;;5059480;28;20191;-85
2021/05/20 01:26:09;;;;;;;2.33;1.70;;;10.00;87.30;;;;;;5055730;28;20560;-85
2021/05/20 01:28:36;;;;;;;2.47;2.10;;;10.00;87.50;;;;;;5047194;28;20573;-84
2021/05/20 01:31:04;;;;;;;2.10;1.90;;;10.00;87.20;;;;;;5052197;28;20482;-85
2021/05/20 01:33:31;;;;;;;2.22;1.70;;;10.00;87.20;;;;;;5044049;28;20212;-85
2021/05/20 01:35:57;;;;;;;2.50;2.00;;;10.00;87.20;;;;;;5048932;28;20215;-82
2021/05/20 01:38:43;;;;;;;1.83;1.70;;;9.90;87.90;;;;;;5050318;28;20223;-83
2021/05/20 01:41:11;;;;;;;2.65;1.90;;;10.00;87.80;;;;;;5049566;28;20234;-84
2021/05/20 01:43:38;;;;;;;5.63;1.70;;;10.20;87.60;;;;;;5052316;28;20210;-84
2021/05/20 01:46:06;;;;;;;2.13;1.50;;;10.10;86.40;;;;;;5052389;28;20223;-84
2021/05/20 01:48:36;;;;;;;1.67;1.58;;;10.10;86.00;;;;;;5057125;28;20184;-85
2021/05/20 01:51:05;;;;;;;1.95;1.70;;;10.20;84.90;;;;;;5058718;28;20194;-85
2021/05/20 01:53:33;;;;;;;1.63;1.52;;;10.20;84.90;;;;;;5055627;28;20233;-85
2021/05/20 01:55:59;;;;;;;3.00;1.88;;;10.30;84.30;;;;;;5050981;28;20203;-85
2021/05/20 01:58:26;;;;;;;2.63;1.60;;;10.30;83.60;;;;;;5047758;28;20724;-84
2021/05/20 02:00:53;;;;;;;1.90;1.70;;;10.30;83.90;;;;;;5040995;28;20657;-83
2021/05/20 02:03:20;;;;;;;2.88;1.90;;;10.30;82.80;;;;;;5041379;28;20214;-84
2021/05/20 02:05:47;;;;;;;1.73;1.45;;;10.30;82.40;;;;;;5041215;28;20245;-83
2021/05/20 02:08:13;;;;;;;1.27;1.17;;;10.30;82.20;;;;;;5041244;28;20566;-82
2021/05/20 02:10:40;;;;;;;2.10;1.90;;;10.40;81.70;;;;;;5044350;28;20238;-84
2021/05/20 02:13:07;;;;;;;1.27;1.17;;;10.40;81.80;;;;;;5042708;28;20227;-84
2021/05/20 02:15:34;;;;;;;2.05;1.50;;;10.40;81.70;;;;;;5041873;28;20262;-84
2021/05/20 02:18:00;;;;;;;1.50;1.40;;;10.40;82.30;;;;;;5049962;28;20211;-85
2021/05/20 02:20:27;;;;;;;1.52;1.30;;;10.40;82.50;;;;;;5044662;28;20236;-84
2021/05/20 02:22:53;;;;;;;1.70;1.60;;;10.40;81.60;;;;;;5045719;28;20208;-85
2021/05/20 02:25:20;;;;;;;1.70;1.60;;;10.40;82.00;;;;;;5054251;28;20199;-85
2021/05/20 02:27:47;;;;;;;2.85;1.90;;;10.40;82.40;;;;;;5057646;28;20363;-86
2021/05/20 02:30:15;;;;;;;2.83;1.70;;;10.40;81.80;;;;;;5057220;28;20231;-85
2021/05/20 02:32:42;;;;;;;2.40;1.65;;;10.40;82.40;;;;;;5057072;28;20199;-85
2021/05/20 02:35:10;;;;;;;1.75;1.65;;;10.40;82.50;;;;;;5057570;28;20293;-85
2021/05/20 02:37:37;;;;;;;5.60;1.98;;;10.50;82.30;;;;;;5057030;28;20206;-85
2021/05/20 02:40:05;;;;;;;1.30;1.20;;;10.50;82.30;;;;;;5056217;28;20215;-84
2021/05/20 02:42:32;;;;;;;1.92;1.75;;;10.40;82.90;;;;;;5055899;28;20203;-84
2021/05/20 02:44:59;;;;;;;2.90;1.58;;;10.40;83.20;;;;;;5052075;28;20207;-83
2021/05/20 02:47:26;;;;;;;3.95;1.80;;;10.40;83.00;;;;;;5052869;28;20199;-84
2021/05/20 02:49:52;;;;;;;3.28;1.90;;;10.40;83.40;;;;;;5056060;28;20226;-85
2021/05/20 02:52:19;;;;;;;1.80;1.60;;;10.40;83.50;;;;;;5056783;28;20211;-85
2021/05/20 02:54:45;;;;;;;2.42;1.85;;;10.30;83.60;;;;;;5057193;28;20214;-85
2021/05/20 02:57:12;;;;;;;2.35;2.15;;;10.30;84.30;;;;;;5055854;28;20242;-83
2021/05/20 02:59:38;;;;;;;1.98;1.67;;;10.30;85.00;;;;;;5056962;28;20264;-85
2021/05/20 03:02:07;;;;;;;1.88;1.77;;;10.30;85.00;;;;;;5057201;28;20218;-84
2021/05/20 03:04:34;;;;;;;1.83;1.70;;;10.30;85.00;;;;;;5057066;28;20191;-84
2021/05/20 03:07:01;;;;;;;2.78;2.15;;;10.30;85.00;;;;;;5057024;28;20191;-85
2021/05/20 03:09:28;;;;;;;2.90;1.90;;;10.30;85.00;;;;;;5057070;28;20295;-86
2021/05/20 03:11:57;;;;;;;2.40;1.70;;;10.40;85.00;;;;;;5056535;28;20183;-84
2021/05/20 03:14:24;;;;;;;2.03;1.80;;;10.30;85.00;;;;;;5039779;28;20223;-84
2021/05/20 03:16:50;;;;;;;4.15;2.22;;;10.20;84.90;;;;;;5038209;28;20245;-85
2021/05/20 03:19:18;;;;;;;2.00;1.90;;;10.20;84.90;;;;;;5039419;28;20262;-84
2021/05/20 03:21:44;;;;;;;2.38;2.10;;;10.70;85.30;;;;;;5044138;28;20258;-84
2021/05/20 03:24:11;;;;;;;1.80;1.70;;;10.20;84.90;;;;;;5049909;28;20360;-83
2021/05/20 03:26:38;;;;;;;4.60;2.40;;;10.20;84.90;;;;;;5040383;28;20265;-84
2021/05/20 03:29:05;;;;;;;2.42;2.22;;;11.00;85.60;;;;;;5036684;28;20274;-81
2021/05/20 03:31:31;;;;;;;2.30;2.20;;;11.10;85.70;;;;;;5037376;28;20231;-83
2021/05/20 03:33:58;;;;;;;2.58;2.30;;;10.20;84.90;;;;;;5036460;28;20218;-84
2021/05/20 03:36:25;;;;;;;2.60;2.20;;;10.20;84.90;;;;;;5036222;28;20294;-84
2021/05/20 03:38:52;;;;;;;2.70;2.10;;;10.80;85.30;;;;;;5038303;28;20249;-84
2021/05/20 03:41:19;;;;;;;4.30;2.40;;;10.20;84.80;;;;;;5037113;28;20227;-85
2021/05/20 03:43:45;;;;;;;2.22;2.10;;;10.20;84.80;;;;;;5037656;28;20234;-84
2021/05/20 03:46:11;;;;;;;3.28;1.88;;;10.50;84.60;;;;;;5037204;28;20231;-85
2021/05/20 03:48:38;;;;;;;2.38;2.17;;;10.10;83.80;;;;;;5036722;28;20270;-84
2021/05/20 03:51:05;;;;;;;2.83;2.40;;;10.20;83.30;;;;;;5036814;28;20285;-85
2021/05/20 03:53:32;;;;;;;2.42;2.22;;;10.10;82.70;;;;;;5035922;28;20279;-84
2021/05/20 03:55:59;;;;;;;9.18;2.13;;;10.10;82.80;;;;;;5036266;28;20203;-85
2021/05/20 03:58:26;;;;;;;2.60;2.40;;;10.10;82.50;;;;;;5039321;28;20211;-83
2021/05/20 04:00:53;;;;;;;2.97;2.60;;;10.00;82.70;;;;;;5038601;28;20229;-84
2021/05/20 04:03:23;;;;;;;3.00;2.80;;;10.10;82.50;;;;;;5042056;28;20243;-83
2021/05/20 04:05:51;;;;;;;4.28;2.50;;;10.10;82.70;;;;;;5035603;28;20199;-84
2021/05/20 04:08:18;;;;;;;2.60;2.30;;;10.10;83.00;;;;;;5034631;28;20211;-85
2021/05/20 04:10:45;;;;;;;2.90;2.60;;;10.10;82.40;;;;;;5042226;28;20229;-84
2021/05/20 04:13:12;;;;;;;3.45;2.70;;;10.10;82.70;;;;;;5037242;28;20722;-83
2021/05/20 04:15:38;;;;;;;2.88;2.13;;;10.10;83.60;;;;;;5036650;28;20290;-85
2021/05/20 04:18:05;;;;;;;3.00;2.70;;;10.10;83.70;;;;;;5035795;28;20245;-85
2021/05/20 04:20:32;;;;;;;2.60;2.40;;;10.20;83.60;;;;;;5035769;28;20302;-84
2021/05/20 04:22:58;;;;;;;2.60;2.40;;;10.30;83.20;;;;;;5035107;28;20195;-85
2021/05/20 04:25:25;;;;;;;3.40;2.38;;;10.40;82.20;;;;;;5036203;28;20567;-86
2021/05/20 04:27:52;;;;;;;3.95;2.85;;;10.40;81.20;;;;;;5052592;28;20221;-84
2021/05/20 04:30:19;;;;;;;5.28;3.00;;;10.40;81.70;;;;;;5055687;28;20231;-83
2021/05/20 04:32:46;;;;;;;5.80;3.20;;;10.50;82.20;;;;;;5043919;28;20318;-83
2021/05/20 04:35:12;;;;;;;3.72;2.60;;;10.50;81.30;;;;;;5040295;28;20577;-83
2021/05/20 04:37:38;;;;;;;2.72;2.53;;;10.50;81.30;;;;;;5039715;28;20231;-85
2021/05/20 04:40:06;;;;;;;2.60;2.40;;;10.50;81.60;;;;;;5039774;28;20281;-86
2021/05/20 04:42:32;;;;;;;2.92;2.65;;;10.50;81.40;;;;;;5039387;28;20259;-85
2021/05/20 04:44:59;;;;;;;3.58;2.75;;;10.60;81.50;;;;;;5053199;28;20192;-84
2021/05/20 04:47:26;;;;;;;2.90;2.70;;;10.60;80.70;;;;;;5059020;28;20207;-83
2021/05/20 04:49:52;;;;;;;5.30;2.97;;;10.60;81.00;;;;;;5047612;28;20265;-86
2021/05/20 04:52:19;;;;;;;4.03;2.95;;;10.60;81.00;;;;;;5040463;28;20299;-86
2021/05/20 04:54:45;;;;;;;4.30;3.03;;;10.60;81.20;;;;;;5040191;28;20222;-85
2021/05/20 04:57:11;;;;;;;3.17;2.88;;;10.70;81.10;;;;;;5042455;28;20234;-84
2021/05/20 04:59:38;;;;;;;2.90;2.65;;;10.70;80.50;;;;;;5042515;28;20242;-86
2021/05/20 05:02:05;;;;;;;2.90;2.50;;;10.80;78.50;;;;;;5040087;28;20229;-85
2021/05/20 05:04:32;;;;;;;2.30;2.10;;;10.80;78.00;;;;;;5040000;28;20310;-84
2021/05/20 05:06:58;;;;;;;2.47;2.10;;;10.90;77.60;;;;;;5043185;28;20240;-85
2021/05/20 05:09:25;;;;;;;5.00;2.72;;;11.00;77.20;;;;;;5058983;28;20219;-86
2021/05/20 05:11:51;;;;;;;3.28;2.45;;;11.00;75.30;;;;;;5056407;28;20204;-83
2021/05/20 05:14:18;;;;;;;3.15;2.70;;;11.00;75.10;;;;;;5060075;28;20211;-86
2021/05/20 05:16:44;;;;;;;3.00;2.72;;;11.10;74.80;;;;;;5061416;28;20198;-82
2021/05/20 05:19:12;;;;;;;2.97;2.38;;;11.20;73.70;;;;;;5060721;28;20227;-84
2021/05/20 05:21:38;;;;;;;3.55;2.70;;;11.20;72.30;;;;;;5061456;28;20211;-86
2021/05/20 05:24:06;;;;;;;3.92;2.50;;;11.20;73.00;;;;;;5058082;28;20230;-87
2021/05/20 05:26:33;;;;;;;4.18;3.35;;;11.20;73.00;;;;;;5058060;28;20195;-84
2021/05/20 05:28:59;;;;;;;2.90;2.70;;;11.30;74.80;;;;;;5071826;22;20226;-83
2021/05/20 05:31:26;;;;;;;2.63;2.42;;;11.30;76.10;;;;;;5076348;28;20191;-83
2021/05/20 05:33:59;;;;;;;3.20;2.90;;;11.40;76.70;;;;;;5078160;28;20202;-84
2021/05/20 05:36:28;;;;;;;3.08;2.88;;;11.40;76.50;;;;;;5078385;28;20186;-83
2021/05/20 05:38:55;;;;;;;3.30;3.00;;;11.40;77.50;;;;;;5075601;28;20194;-81
2021/05/20 05:41:21;;;;;;;3.33;2.85;;;11.40;76.00;;;;;;5050936;28;20254;-81
2021/05/20 05:43:48;;;;;;;3.38;3.08;;;11.30;75.40;;;;;;5034012;28;20214;-80
2021/05/20 05:46:14;;;;;;;3.13;2.83;;;11.30;74.70;;;;;;5025873;28;20234;-79
2021/05/20 05:48:41;;;;;;;3.25;2.83;;;11.30;74.40;;;;;;5038545;28;20302;-80
2021/05/20 05:51:11;;;;;;;5.15;3.00;;;11.20;75.10;;;;;;5041873;28;20777;-80
2021/05/20 05:53:38;;;;;;;3.67;3.33;;;11.20;76.40;;;;;;5041878;28;20233;-81
2021/05/20 05:56:05;;;;;;;3.20;2.90;;;11.20;76.90;;;;;;5037993;28;20211;-80
2021/05/20 05:58:31;;;;;;;3.40;3.10;;;11.20;76.30;;;;;;5037551;28;20519;-79
2021/05/20 06:00:59;;;;;;;3.33;3.03;;;11.30;75.80;;;;;;5053612;28;20234;-81
2021/05/20 06:03:26;;;;;;;3.55;3.03;;;11.40;76.50;;;;;;5058608;28;20194;-82
2021/05/20 06:05:53;;;;;;;3.42;3.13;;;11.50;75.20;;;;;;5058355;28;20191;-81
2021/05/20 06:08:21;;;;;;;3.60;3.30;;;11.70;73.90;;;;;;5058068;28;20184;-82
2021/05/20 06:10:48;;;;;;;4.68;4.15;;;11.80;73.60;;;;;;5058018;28;20239;-81
2021/05/20 06:13:15;;;;;;;3.50;3.13;;;12.10;71.80;;;;;;5058621;28;20230;-81
2021/05/20 06:15:41;;;;;;;4.38;3.30;;;12.40;71.00;;;;;;5058332;28;20179;-81
2021/05/20 06:18:07;;;;;;;3.90;3.58;;;12.70;68.30;;;;;;5055723;28;20241;-77
2021/05/20 06:20:34;;;;;;;3.20;3.00;;;13.00;65.90;;;;;;5039426;28;20322;-80
2021/05/20 06:23:00;;;;;;;3.45;3.10;;;13.30;65.60;;;;;;5039254;28;20234;-80
2021/05/20 06:25:27;;;;;;;3.00;2.70;;;14.40;62.70;;;;;;5038596;28;20206;-79
2021/05/20 06:27:54;;;;;;;3.15;2.83;;;15.40;54.30;;;;;;5037275;28;20280;-78
2021/05/20 06:30:21;;;;;;;4.43;2.93;;;15.80;50.20;;;;;;5036594;28;20328;-80
2021/05/20 06:32:48;;;;;;;11.63;4.00;;;16.00;49.40;;;;;;5034614;28;20442;-78
2021/05/20 06:35:14;;;;;;;3.50;3.20;;;16.20;49.10;;;;;;5033976;28;20429;-78
2021/05/20 06:37:42;;;;;;;2.93;2.40;;;16.30;49.30;;;;;;5034120;28;20486;-78
2021/05/20 06:40:10;;;;;;;3.60;2.50;;;16.30;47.60;;;;;;5035163;28;20453;-79
2021/05/20 06:42:36;;;;;;;3.03;2.37;;;16.60;46.00;;;;;;5035477;28;20526;-78
2021/05/20 06:45:05;;;;;;;2.80;2.60;;;16.50;45.60;;;;;;5034974;28;20814;-78
2021/05/20 06:47:31;;;;;;;3.17;2.73;;;16.00;47.00;;;;;;5035795;28;20444;-78
2021/05/20 06:49:58;;;;;;;3.10;2.77;;;15.70;47.40;;;;;;5032113;28;20559;-79
2021/05/20 06:52:24;;;;;;;2.77;2.57;;;15.30;48.10;;;;;;5055518;28;20484;-76
2021/05/20 06:54:51;;;;;;;4.28;3.30;;;15.00;48.30;;;;;;5054787;28;20427;-78
2021/05/20 06:57:21;;;;;;;3.63;2.97;;;14.70;50.40;;;;;;5067312;28;20268;-77
2021/05/20 06:59:57;;;;;;;3.17;2.97;;;14.50;51.00;;;;;;5072539;28;20234;-77
2021/05/20 07:02:24;;;;;;;4.15;2.97;;;14.50;50.60;;;;;;5061244;28;20727;-78
2021/05/20 07:04:51;;;;;;;3.70;3.05;;;14.50;51.00;;;;;;5057136;28;20203;-78
2021/05/20 07:07:17;;;;;;;2.90;2.70;;;14.30;51.70;;;;;;5047999;28;20214;-79
2021/05/20 07:09:44;;;;;;;4.18;3.53;;;14.20;53.20;;;;;;5025156;28;20468;-78
2021/05/20 07:12:12;;;;;;;5.15;3.47;;;13.90;52.90;;;;;;5017460;28;20241;-77
2021/05/20 07:14:38;;;;;;;3.30;2.90;;;13.90;52.90;;;;;;5017145;28;20207;-79
2021/05/20 07:17:05;;;;;;;5.13;3.03;;;13.90;52.90;;;;;;5015999;28;20211;-79
2021/05/20 07:19:33;;;;;;;2.88;2.63;;;13.80;52.80;;;;;;5015854;28;20280;-79
2021/05/20 07:21:59;;;;;;;3.10;2.80;;;13.70;52.70;;;;;;5015177;28;20262;-78
2021/05/20 07:24:26;;;;;;;5.70;3.05;;;13.60;52.60;;;;;;5014572;28;20287;-79
2021/05/20 07:26:52;;;;;;;4.40;2.72;;;13.80;52.80;;;;;;5016205;28;20275;-79
2021/05/20 07:29:19;;;;;;;3.35;2.75;;;13.90;52.90;;;;;;5016170;28;20259;-78
2021/05/20 07:31:45;;;;;;;3.10;2.80;;;14.20;50.80;;;;;;5014307;28;20200;-78
2021/05/20 07:34:12;;;;;;;2.80;2.60;;;14.50;50.20;;;;;;5030987;28;20294;-78
2021/05/20 07:36:39;;;;;;;4.32;3.25;;;14.90;49.70;;;;;;5033385;28;20210;-78
2021/05/20 07:39:07;;;;;;;4.23;2.43;;;15.10;48.80;;;;;;5032546;28;20643;-79
2021/05/20 07:41:34;;;;;;;3.00;2.80;;;15.20;48.70;;;;;;5033749;28;20758;-79
2021/05/20 07:44:00;;;;;;;4.30;2.75;;;15.00;47.90;;;;;;5019922;28;20199;-79
2021/05/20 07:46:27;;;;;;;3.60;2.50;;;14.50;46.80;;;;;;5016231;28;20211;-80
2021/05/20 07:48:53;;;;;;;2.95;2.70;;;14.40;48.50;;;;;;5019891;28;20683;-81
2021/05/20 07:51:21;;;;;;;2.80;2.47;;;14.50;49.60;;;;;;5024551;28;20204;-79
2021/05/20 07:53:48;;;;;;;3.75;3.10;;;14.60;48.70;;;;;;5036237;28;20217;-81
2021/05/20 07:56:14;;;;;;;2.95;2.75;;;14.70;48.90;;;;;;5048034;28;20204;-80
2021/05/20 07:58:41;;;;;;;2.63;2.42;;;14.60;49.10;;;;;;5049492;28;20306;-80
2021/05/20 08:01:09;;;;;;;2.80;2.60;;;14.70;46.50;;;;;;5042612;28;20227;-78
2021/05/20 08:03:39;;;;;;;2.88;2.67;;;14.50;47.20;;;;;;5038574;28;20219;-79
2021/05/20 08:06:11;;;;;;;3.35;2.42;;;14.40;47.60;;;;;;5036676;28;20533;-79
2021/05/20 08:08:48;;;;;;;2.40;2.20;;;14.50;46.80;;;;;;5038500;28;20571;-80
2021/05/20 08:11:16;;;;;;;3.35;2.70;;;14.50;47.40;;;;;;5035016;28;20679;-78
2021/05/20 08:13:43;;;;;;;3.25;2.70;;;14.80;48.30;;;;;;5034921;28;20203;-79
2021/05/20 08:16:10;;;;;;;2.95;1.90;;;15.00;47.40;;;;;;5035108;28;20211;-81
2021/05/20 08:18:36;;;;;;;3.13;2.90;;;15.00;46.20;;;;;;5036562;28;20214;-80
2021/05/20 08:21:04;;;;;;;3.25;2.45;;;15.10;45.10;;;;;;5047653;28;20219;-79
2021/05/20 08:23:32;;;;;;;4.15;2.35;;;15.00;46.60;;;;;;5056239;28;20207;-79
2021/05/20 08:25:59;;;;;;;3.60;1.92;;;15.00;46.30;;;;;;5049601;28;20207;-81
2021/05/20 08:28:26;;;;;;;1.92;1.83;;;15.20;44.90;;;;;;5038262;28;20728;-78
2021/05/20 08:30:53;;;;;;;2.10;2.00;;;15.30;44.40;;;;;;5042655;28;20237;-78
2021/05/20 08:33:20;;;;;;;2.00;1.90;;;15.70;44.80;;;;;;5027688;28;20203;-78
2021/05/20 08:35:47;;;;;;;2.60;2.07;;;15.80;43.20;;;;;;5022003;28;20270;-79
2021/05/20 08:38:18;;;;;;;1.80;1.70;;;15.90;43.10;;;;;;5035367;28;20457;-77
2021/05/20 08:40:44;;;;;;;1.97;1.87;;;16.00;43.30;;;;;;5038351;28;20474;-77
2021/05/20 08:43:11;;;;;;;2.20;2.00;;;16.30;42.00;;;;;;5048694;28;20426;-77
2021/05/20 08:45:41;;;;;;;1.93;1.83;;;16.50;42.10;;;;;;5050126;28;20556;-78
2021/05/20 08:48:09;;;;;;;2.03;1.92;;;16.70;40.80;;;;;;5054532;28;20442;-80
2021/05/20 08:50:36;;;;;;;2.17;1.90;;;16.30;40.40;;;;;;5049669;28;20230;-78
2021/05/20 08:53:04;;;;;;;2.40;2.20;;;16.00;41.20;;;;;;5030609;28;20440;-79
2021/05/20 08:55:33;;;;;;;2.28;1.90;;;15.80;42.40;;;;;;5019385;28;20212;-80
2021/05/20 08:58:01;;;;;;;2.78;2.58;;;15.50;43.20;;;;;;5015891;28;20223;-79
2021/05/20 09:00:29;;;;;;;2.10;1.90;;;15.80;43.30;;;;;;5017843;28;20236;-78
2021/05/20 09:03:05;;;;;;;1.60;1.50;;;16.30;41.60;;;;;;5034891;28;20456;-77
2021/05/20 09:05:32;;;;;;;1.93;1.50;;;16.70;39.70;;;;;;5035167;28;20484;-79
2021/05/20 09:08:01;;;;;;;2.33;1.80;;;16.60;39.90;;;;;;5018354;28;20489;-79
2021/05/20 09:10:28;;;;;;;2.30;2.20;;;16.80;39.40;;;;;;5028025;28;20502;-79
2021/05/20 09:12:59;;;;;;;1.77;1.67;;;16.80;39.90;;;;;;5047248;28;20856;-79
2021/05/20 09:15:32;;;;;;;1.73;1.63;;;16.80;39.00;;;;;;5041336;28;20431;-78
2021/05/20 09:18:16;;;;;;;4.03;1.97;;;16.80;39.40;;;;;;5038668;28;20426;-78
2021/05/20 09:20:45;;;;;;;1.40;1.30;;;16.80;38.30;;;;;;5040890;28;20481;-77
2021/05/20 09:23:13;;;;;;;1.70;1.60;;;16.60;38.30;;;;;;5024818;28;20460;-78
2021/05/20 09:25:41;;;;;;;1.47;1.37;;;16.70;38.00;;;;;;5025983;28;20470;-79
2021/05/20 09:28:10;;;;;;;1.70;1.60;;;16.80;37.60;;;;;;5047720;28;20548;-77
2021/05/20 09:30:38;;;;;;;3.10;1.40;;;16.70;38.10;;;;;;5025637;28;20497;-79
2021/05/20 09:33:08;;;;;;;2.10;1.90;;;16.80;38.20;;;;;;5038963;28;20439;-79
2021/05/20 09:35:37;;;;;;;2.50;2.07;;;16.40;40.20;;;;;;5044136;28;20473;-77
2021/05/20 09:38:05;;;;;;;2.00;1.90;;;16.20;41.50;;;;;;5059413;28;20496;-80
2021/05/20 09:40:37;;;;;;;1.40;1.30;;;16.00;40.70;;;;;;5053720;28;20529;-78
2021/05/20 09:43:15;;;;;;;1.83;1.53;;;15.80;40.40;;;;;;5021023;28;20310;-79
2021/05/20 09:45:44;;;;;;;2.25;2.03;;;15.40;42.10;;;;;;5022576;28;20555;-77
2021/05/20 09:48:11;;;;;;;2.30;2.20;;;15.00;44.20;;;;;;5037607;28;20298;-78
2021/05/20 09:50:43;;;;;;;3.45;2.22;;;14.90;46.10;;;;;;5037295;28;20285;-77
2021/05/20 09:53:13;;;;;;;2.50;2.30;;;14.80;47.20;;;;;;5038687;28;20682;-77
2021/05/20 09:55:50;;;;;;;1.83;1.73;;;14.60;47.30;;;;;;5038694;28;20199;-78
2021/05/20 09:58:16;;;;;;;1.95;1.30;;;14.50;46.60;;;;;;5044229;28;20222;-80
2021/05/20 10:00:43;;;;;;;1.23;1.15;;;14.50;45.50;;;;;;5055379;28;20224;-79
2021/05/20 10:03:11;;;;;;;3.72;1.55;;;14.50;45.70;;;;;;5055911;28;20230;-77
2021/05/20 10:05:38;;;;;;;1.77;1.08;;;14.60;43.80;;;;;;5041057;28;20302;-79
2021/05/20 10:08:08;;;;;;;1.88;1.10;;;15.10;44.30;;;;;;5038146;28;20600;-78
2021/05/20 10:10:37;;;;;;;1.02;1.00;;;15.70;42.70;;;;;;5043902;28;20262;-79
2021/05/20 10:13:08;;;;;;;1.00;1.00;;;16.00;37.30;;;;;;5045436;28;20207;-80
2021/05/20 10:15:35;;;;;;;3.70;0.80;;;16.00;35.10;;;;;;5025525;28;20204;-80
2021/05/20 10:18:06;;;;;;;1.20;1.00;;;16.10;36.00;;;;;;5028936;28;20208;-79
2021/05/20 10:20:34;;;;;;;0.93;0.90;;;16.40;37.70;;;;;;5044068;28;20499;-79
2021/05/20 10:23:06;;;;;;;1.57;1.00;;;16.60;35.60;;;;;;5048197;28;20827;-80
2021/05/20 10:25:34;;;;;;;0.70;0.70;;;16.70;33.40;;;;;;5046184;28;20445;-79
2021/05/20 10:28:01;;;;;;;2.80;0.70;;;16.80;33.20;;;;;;5045908;28;20493;-82
2021/05/20 10:30:28;;;;;;;1.27;0.90;;;16.90;31.50;;;;;;5044803;28;20453;-78
2021/05/20 10:32:59;;;;;;;0.80;0.80;;;17.20;32.20;;;;;;5048594;28;20476;-78
2021/05/20 10:35:43;;;;;;;1.27;1.20;;;17.50;30.80;;;;;;5051741;28;20413;-79
2021/05/20 10:38:12;;;;;;;1.83;1.30;;;17.80;33.00;;;;;;5055399;28;20453;-79
2021/05/20 10:40:38;;;;;;;1.20;1.17;;;18.00;33.20;;;;;;5052614;28;20436;-78
2021/05/20 10:43:13;;;;;;;1.50;1.40;;;18.10;32.80;;;;;;5055483;28;20460;-78
2021/05/20 10:45:41;;;;;;;1.57;1.47;;;18.20;33.60;;;;;;5046490;28;20492;-78
2021/05/20 10:48:21;;;;;;;1.60;1.50;;;18.30;33.30;;;;;;5053807;28;20432;-78
2021/05/20 10:50:58;;;;;;;2.77;1.70;;;18.30;34.60;;;;;;5037483;28;20525;-79
2021/05/20 10:53:46;;;;;;;3.50;1.93;;;18.90;33.40;;;;;;5036214;28;20418;-79
2021/05/20 10:56:53;;;;;;;1.40;1.30;;;18.90;32.60;;;;;;5053690;28;20450;-79
2021/05/20 10:59:35;;;;;;;2.50;1.50;;;18.60;32.30;;;;;;5053986;28;20548;-78
2021/05/20 11:02:02;;;;;;;1.27;1.10;;;18.80;30.20;;;;;;5041738;28;20485;-77
2021/05/20 11:04:33;;;;;;;1.40;1.30;;;18.80;29.20;;;;;;5039350;28;20520;-78
2021/05/20 11:07:00;;;;;;;3.70;1.37;;;18.70;30.00;;;;;;5046935;28;20420;-78
2021/05/20 11:09:44;;;;;;;1.30;1.20;;;18.40;30.30;;;;;;5040203;28;20556;-78
2021/05/20 11:12:10;;;;;;;0.83;0.83;;;18.10;30.90;;;;;;5022303;28;20481;-78
2021/05/20 11:14:42;;;;;;;2.20;1.43;;;18.70;30.30;;;;;;5026921;28;20440;-79
2021/05/20 11:17:39;;;;;;;7.30;1.87;;;19.10;30.10;;;;;;5036704;28;21050;-78
2021/05/20 11:20:51;;;;;;;1.00;1.00;;;19.10;30.00;;;;;;5050120;28;20465;-77
2021/05/20 11:23:26;;;;;;;1.27;1.00;;;19.50;28.50;;;;;;5064337;28;20492;-78
2021/05/20 11:26:14;;;;;;;1.43;1.10;;;19.70;28.70;;;;;;5033170;28;20452;-78
2021/05/20 11:28:43;;;;;;;0.97;0.90;;;19.40;28.50;;;;;;5033513;28;20514;-77
2021/05/20 11:31:10;;;;;;;1.00;1.00;;;19.10;28.20;;;;;;5051318;28;20439;-78
2021/05/20 11:33:47;;;;;;;1.50;1.40;;;18.90;28.10;;;;;;5048230;28;20422;-78
2021/05/20 11:36:14;;;;;;;0.80;0.80;;;19.20;28.30;;;;;;5042372;28;20446;-77
2021/05/20 11:38:56;;;;;;;1.80;1.07;;;18.90;28.10;;;;;;5049893;28;20436;-79
2021/05/20 11:41:24;;;;;;;1.40;1.30;;;18.30;30.40;;;;;;5049562;28;20478;-78
2021/05/20 11:44:11;;;;;;;1.80;1.70;;;18.10;31.90;;;;;;5052424;28;20452;-75
2021/05/20 11:46:38;;;;;;;1.43;1.33;;;18.00;33.20;;;;;;5051682;28;20485;-79
2021/05/20 11:49:18;;;;;;;1.27;1.20;;;18.40;32.50;;;;;;5049703;28;20456;-79
2021/05/20 11:52:03;;;;;;;2.30;1.63;;;18.30;32.40;;;;;;5052713;28;20452;-78
2021/05/20 11:54:31;;;;;;;3.27;1.10;;;18.00;32.50;;;;;;5055251;28;20441;-76
2021/05/20 11:57:00;;;;;;;1.30;1.20;;;17.60;31.50;;;;;;5053500;28;20464;-79
2021/05/20 11:59:47;;;;;;;2.23;1.80;;;17.30;33.60;;;;;;5069682;28;20468;-76
2021/05/20 12:02:16;;;;;;;1.57;1.47;;;17.20;35.60;;;;;;5071297;28;20477;-77
2021/05/20 12:04:43;;;;;;;3.13;1.50;;;17.30;35.90;;;;;;5055858;28;20941;-77
2021/05/20 12:07:21;;;;;;;1.90;1.80;;;17.40;36.40;;;;;;5059445;28;20536;-78
2021/05/20 12:09:48;;;;;;;2.10;1.90;;;17.50;36.50;;;;;;5059484;28;20521;-76
2021/05/20 12:12:17;;;;;;;1.93;1.83;;;17.70;36.00;;;;;;5060454;28;20449;-77
2021/05/20 12:14:44;;;;;;;2.33;2.13;;;17.80;35.50;;;;;;5060205;28;20457;-77
2021/05/20 12:17:16;;;;;;;3.20;2.33;;;17.80;34.80;;;;;;5061632;28;20449;-78
2021/05/20 12:19:46;;;;;;;2.30;2.10;;;17.90;34.40;;;;;;5060485;28;20432;-77
2021/05/20 12:22:15;;;;;;;2.27;1.90;;;18.00;34.30;;;;;;5060813;28;20460;-77
2021/05/20 12:24:43;;;;;;;3.10;2.20;;;18.10;33.80;;;;;;5063649;28;20883;-77
2021/05/20 12:27:12;;;;;;;2.60;1.80;;;18.00;33.40;;;;;;5062135;28;20513;-77
2021/05/20 12:29:41;;;;;;;1.53;1.40;;;18.30;33.30;;;;;;5060719;28;20511;-78
2021/05/20 12:32:23;;;;;;;2.13;1.93;;;18.30;33.00;;;;;;5042273;28;20425;-76
2021/05/20 12:35:18;;;;;;;2.10;2.00;;;18.30;32.50;;;;;;5036061;28;20826;-78
2021/05/20 12:37:47;;;;;;;2.80;1.43;;;18.50;31.70;;;;;;5040082;28;20504;-78
2021/05/20 12:40:15;;;;;;;1.20;1.17;;;18.50;31.30;;;;;;5041044;28;20476;-80
2021/05/20 12:42:42;;;;;;;2.10;1.20;;;18.60;30.20;;;;;;5043037;28;20492;-78
2021/05/20 12:45:10;;;;;;;1.30;1.13;;;18.80;30.50;;;;;;5044150;28;20454;-79
2021/05/20 12:47:47;;;;;;;2.50;1.37;;;19.00;28.50;;;;;;5042118;28;20568;-78
2021/05/20 12:50:26;;;;;;;1.17;1.13;;;19.40;28.50;;;;;;5035639;28;20513;-77
2021/05/20 12:52:54;;;;;;;1.93;1.30;;;19.60;28.60;;;;;;5048699;28;20457;-77
2021/05/20 12:55:33;;;;;;;3.20;1.90;;;19.60;28.60;;;;;;5043411;28;20431;-79